sensor_id;sensor_type;location;lat;lon;timestamp;temperature;humidity
1956;DHT22;978;48.314;11.562;2023-02-28T00:00:13;19.60;57.20
1956;DHT22;978;48.314;11.562;2023-02-28T00:02:42;19.60;57.10
1956;DHT22;978;48.314;11.562;2023-02-28T00:05:11;19.60;57.10
1956;DHT22;978;48.314;11.562;2023-02-28T00:07:38;19.60;57.10
1956;DHT22;978;48.314;11.562;2023-02-28T00:10:06;19.60;57.10
1956;DHT22;978;48.314;11.562;2023-02-28T00:12:34;19.60;57.10
1956;DHT22;978;48.314;11.562;2023-02-28T00:15:03;19.60;57.70
1956;DHT22;978;48.314;11.562;2023-02-28T00:17:31;19.60;57.10
1956;DHT22;978;48.314;11.562;2023-02-28T00:19:58;19.60;57.10
1956;DHT22;978;48.314;11.562;2023-02-28T00:22:30;19.60;57.10
1956;DHT22;978;48.314;11.562;2023-02-28T00:24:57;19.60;57.10
1956;DHT22;978;48.314;11.562;2023-02-28T00:27:23;19.60;57.10
1956;DHT22;978;48.314;11.562;2023-02-28T00:29:50;19.60;57.10
1956;DHT22;978;48.314;11.562;2023-02-28T00:32:18;19.60;57.00
1956;DHT22;978;48.314;11.562;2023-02-28T00:34:45;19.60;57.00
1956;DHT22;978;48.314;11.562;2023-02-28T00:37:12;19.60;57.00
1956;DHT22;978;48.314;11.562;2023-02-28T00:39:39;19.60;57.00
1956;DHT22;978;48.314;11.562;2023-02-28T00:42:07;19.60;57.00
1956;DHT22;978;48.314;11.562;2023-02-28T00:44:34;19.60;57.00
1956;DHT22;978;48.314;11.562;2023-02-28T00:47:01;19.60;57.00
1956;DHT22;978;48.314;11.562;2023-02-28T00:49:29;19.60;57.00
1956;DHT22;978;48.314;11.562;2023-02-28T00:51:56;19.60;57.00
1956;DHT22;978;48.314;11.562;2023-02-28T00:54:23;19.60;56.90
1956;DHT22;978;48.314;11.562;2023-02-28T00:56:50;19.60;57.00
1956;DHT22;978;48.314;11.562;2023-02-28T00:59:18;19.60;57.00
1956;DHT22;978;48.314;11.562;2023-02-28T01:01:46;19.60;57.00
1956;DHT22;978;48.314;11.562;2023-02-28T01:04:13;19.60;56.90
1956;DHT22;978;48.314;11.562;2023-02-28T01:06:41;19.60;56.90
1956;DHT22;978;48.314;11.562;2023-02-28T01:09:08;19.60;57.50
1956;DHT22;978;48.314;11.562;2023-02-28T01:11:35;19.60;56.90
1956;DHT22;978;48.314;11.562;2023-02-28T01:14:02;19.60;56.90
1956;DHT22;978;48.314;11.562;2023-02-28T01:16:29;19.60;56.90
1956;DHT22;978;48.314;11.562;2023-02-28T01:18:56;19.60;56.90
1956;DHT22;978;48.314;11.562;2023-02-28T01:21:23;19.60;56.90
1956;DHT22;978;48.314;11.562;2023-02-28T01:23:51;19.60;56.90
1956;DHT22;978;48.314;11.562;2023-02-28T01:26:20;19.60;56.90
1956;DHT22;978;48.314;11.562;2023-02-28T01:28:48;19.60;56.90
1956;DHT22;978;48.314;11.562;2023-02-28T01:31:15;19.50;56.80
1956;DHT22;978;48.314;11.562;2023-02-28T01:33:43;19.60;56.90
1956;DHT22;978;48.314;11.562;2023-02-28T01:36:12;19.60;56.90
1956;DHT22;978;48.314;11.562;2023-02-28T01:38:40;19.50;56.80
1956;DHT22;978;48.314;11.562;2023-02-28T01:41:09;19.60;56.90
1956;DHT22;978;48.314;11.562;2023-02-28T01:44:00;19.60;56.80
1956;DHT22;978;48.314;11.562;2023-02-28T01:46:30;19.50;56.80
1956;DHT22;978;48.314;11.562;2023-02-28T01:49:02;19.60;56.80
1956;DHT22;978;48.314;11.562;2023-02-28T01:51:33;19.50;56.70
1956;DHT22;978;48.314;11.562;2023-02-28T01:54:04;19.60;56.80
1956;DHT22;978;48.314;11.562;2023-02-28T01:56:34;19.60;56.80
1956;DHT22;978;48.314;11.562;2023-02-28T01:59:03;19.60;56.80
1956;DHT22;978;48.314;11.562;2023-02-28T02:01:30;19.60;56.80
1956;DHT22;978;48.314;11.562;2023-02-28T02:04:01;19.60;56.80
1956;DHT22;978;48.314;11.562;2023-02-28T02:06:31;19.60;56.80
1956;DHT22;978;48.314;11.562;2023-02-28T02:09:00;19.60;56.70
1956;DHT22;978;48.314;11.562;2023-02-28T02:11:28;19.60;56.70
1956;DHT22;978;48.314;11.562;2023-02-28T02:14:09;19.60;56.70
1956;DHT22;978;48.314;11.562;2023-02-28T02:16:49;19.60;56.80
1956;DHT22;978;48.314;11.562;2023-02-28T02:19:49;19.60;56.70
1956;DHT22;978;48.314;11.562;2023-02-28T02:22:37;19.60;56.70
1956;DHT22;978;48.314;11.562;2023-02-28T02:25:24;19.60;56.70
1956;DHT22;978;48.314;11.562;2023-02-28T02:31:10;19.60;56.70
1956;DHT22;978;48.314;11.562;2023-02-28T02:34:07;19.60;56.70
1956;DHT22;978;48.314;11.562;2023-02-28T02:36:39;19.60;57.30
1956;DHT22;978;48.314;11.562;2023-02-28T02:39:13;19.60;56.70
1956;DHT22;978;48.314;11.562;2023-02-28T02:41:46;19.60;56.70
1956;DHT22;978;48.314;11.562;2023-02-28T02:44:18;19.50;56.60
1956;DHT22;978;48.314;11.562;2023-02-28T02:46:49;19.60;56.70
1956;DHT22;978;48.314;11.562;2023-02-28T02:49:20;19.50;56.60
1956;DHT22;978;48.314;11.562;2023-02-28T02:51:48;19.60;56.70
1956;DHT22;978;48.314;11.562;2023-02-28T02:54:19;19.60;56.70
1956;DHT22;978;48.314;11.562;2023-02-28T02:56:48;19.60;56.60
1956;DHT22;978;48.314;11.562;2023-02-28T02:59:18;19.60;56.60
1956;DHT22;978;48.314;11.562;2023-02-28T03:01:49;19.60;56.70
1956;DHT22;978;48.314;11.562;2023-02-28T03:04:20;19.60;56.60
1956;DHT22;978;48.314;11.562;2023-02-28T03:06:48;19.60;56.60
1956;DHT22;978;48.314;11.562;2023-02-28T03:09:20;19.50;56.60
1956;DHT22;978;48.314;11.562;2023-02-28T03:11:47;19.50;56.50
1956;DHT22;978;48.314;11.562;2023-02-28T03:14:40;19.60;56.60
1956;DHT22;978;48.314;11.562;2023-02-28T03:17:24;19.60;56.60
1956;DHT22;978;48.314;11.562;2023-02-28T03:20:02;19.60;56.60
1956;DHT22;978;48.314;11.562;2023-02-28T03:22:46;19.60;56.60
1956;DHT22;978;48.314;11.562;2023-02-28T03:25:21;19.60;56.60
1956;DHT22;978;48.314;11.562;2023-02-28T03:27:59;19.50;56.50
1956;DHT22;978;48.314;11.562;2023-02-28T03:30:35;19.50;56.50
1956;DHT22;978;48.314;11.562;2023-02-28T03:33:06;19.50;56.50
1956;DHT22;978;48.314;11.562;2023-02-28T03:35:39;19.60;56.60
1956;DHT22;978;48.314;11.562;2023-02-28T03:38:10;19.50;56.50
1956;DHT22;978;48.314;11.562;2023-02-28T03:40:43;19.60;56.60
1956;DHT22;978;48.314;11.562;2023-02-28T03:43:15;19.60;56.60
1956;DHT22;978;48.314;11.562;2023-02-28T03:45:45;19.50;56.60
1956;DHT22;978;48.314;11.562;2023-02-28T03:48:17;19.50;56.60
1956;DHT22;978;48.314;11.562;2023-02-28T03:50:49;19.60;56.70
1956;DHT22;978;48.314;11.562;2023-02-28T03:53:21;19.60;56.60
1956;DHT22;978;48.314;11.562;2023-02-28T03:55:52;19.50;56.60
1956;DHT22;978;48.314;11.562;2023-02-28T03:58:23;19.60;56.60
1956;DHT22;978;48.314;11.562;2023-02-28T04:00:56;19.50;56.50
1956;DHT22;978;48.314;11.562;2023-02-28T04:03:34;19.60;56.60
1956;DHT22;978;48.314;11.562;2023-02-28T04:06:04;19.50;56.50
1956;DHT22;978;48.314;11.562;2023-02-28T04:08:31;19.50;56.50
1956;DHT22;978;48.314;11.562;2023-02-28T04:11:01;19.60;56.60
1956;DHT22;978;48.314;11.562;2023-02-28T04:13:30;19.50;56.50
1956;DHT22;978;48.314;11.562;2023-02-28T04:15:57;19.50;56.50
1956;DHT22;978;48.314;11.562;2023-02-28T04:18:23;19.50;56.50
1956;DHT22;978;48.314;11.562;2023-02-28T04:20:50;19.60;56.50
1956;DHT22;978;48.314;11.562;2023-02-28T04:23:18;19.50;56.50
1956;DHT22;978;48.314;11.562;2023-02-28T04:25:45;19.60;56.50
1956;DHT22;978;48.314;11.562;2023-02-28T04:28:11;19.60;56.60
1956;DHT22;978;48.314;11.562;2023-02-28T04:30:38;19.60;56.60
1956;DHT22;978;48.314;11.562;2023-02-28T04:33:05;19.50;56.50
1956;DHT22;978;48.314;11.562;2023-02-28T04:35:32;19.50;56.50
1956;DHT22;978;48.314;11.562;2023-02-28T04:37:59;19.60;56.50
1956;DHT22;978;48.314;11.562;2023-02-28T04:40:27;19.50;56.50
1956;DHT22;978;48.314;11.562;2023-02-28T04:42:54;19.50;56.50
1956;DHT22;978;48.314;11.562;2023-02-28T04:45:21;19.60;56.50
1956;DHT22;978;48.314;11.562;2023-02-28T04:47:47;19.60;56.50
1956;DHT22;978;48.314;11.562;2023-02-28T04:50:14;19.50;56.40
1956;DHT22;978;48.314;11.562;2023-02-28T04:52:41;19.60;56.50
1956;DHT22;978;48.314;11.562;2023-02-28T04:55:08;19.50;56.40
1956;DHT22;978;48.314;11.562;2023-02-28T04:57:37;19.50;56.40
1956;DHT22;978;48.314;11.562;2023-02-28T05:00:04;19.60;56.50
1956;DHT22;978;48.314;11.562;2023-02-28T05:02:37;19.50;56.40
1956;DHT22;978;48.314;11.562;2023-02-28T05:05:04;19.60;56.40
1956;DHT22;978;48.314;11.562;2023-02-28T05:07:31;19.50;56.40
1956;DHT22;978;48.314;11.562;2023-02-28T05:09:57;19.50;56.40
1956;DHT22;978;48.314;11.562;2023-02-28T05:12:24;19.60;56.50
1956;DHT22;978;48.314;11.562;2023-02-28T05:14:53;19.60;56.50
1956;DHT22;978;48.314;11.562;2023-02-28T05:17:20;19.50;56.40
1956;DHT22;978;48.314;11.562;2023-02-28T05:19:46;19.60;56.50
1956;DHT22;978;48.314;11.562;2023-02-28T05:22:14;19.50;56.40
1956;DHT22;978;48.314;11.562;2023-02-28T05:24:42;19.50;56.30
1956;DHT22;978;48.314;11.562;2023-02-28T05:27:09;19.60;56.40
1956;DHT22;978;48.314;11.562;2023-02-28T05:29:36;19.50;56.40
1956;DHT22;978;48.314;11.562;2023-02-28T05:32:09;19.50;56.90
1956;DHT22;978;48.314;11.562;2023-02-28T05:34:37;19.60;56.40
1956;DHT22;978;48.314;11.562;2023-02-28T05:37:04;19.50;56.40
1956;DHT22;978;48.314;11.562;2023-02-28T05:39:30;19.50;56.00
1956;DHT22;978;48.314;11.562;2023-02-28T05:41:57;19.60;56.40
1956;DHT22;978;48.314;11.562;2023-02-28T05:44:24;19.50;56.40
1956;DHT22;978;48.314;11.562;2023-02-28T05:46:51;19.50;56.40
1956;DHT22;978;48.314;11.562;2023-02-28T05:49:19;19.60;56.40
1956;DHT22;978;48.314;11.562;2023-02-28T05:51:45;19.50;56.40
1956;DHT22;978;48.314;11.562;2023-02-28T05:54:12;19.50;56.90
1956;DHT22;978;48.314;11.562;2023-02-28T05:56:39;19.50;56.30
1956;DHT22;978;48.314;11.562;2023-02-28T05:59:09;19.50;56.30
1956;DHT22;978;48.314;11.562;2023-02-28T06:01:37;19.50;56.30
1956;DHT22;978;48.314;11.562;2023-02-28T06:04:06;19.60;56.40
1956;DHT22;978;48.314;11.562;2023-02-28T06:06:35;19.60;56.40
1956;DHT22;978;48.314;11.562;2023-02-28T06:09:03;19.50;56.30
1956;DHT22;978;48.314;11.562;2023-02-28T06:11:30;19.60;56.40
1956;DHT22;978;48.314;11.562;2023-02-28T06:13:57;19.60;56.30
1956;DHT22;978;48.314;11.562;2023-02-28T06:16:25;19.50;56.30
1956;DHT22;978;48.314;11.562;2023-02-28T06:18:53;19.50;56.30
1956;DHT22;978;48.314;11.562;2023-02-28T06:21:21;19.50;56.20
1956;DHT22;978;48.314;11.562;2023-02-28T06:23:50;19.50;56.30
1956;DHT22;978;48.314;11.562;2023-02-28T06:26:16;19.50;56.20
1956;DHT22;978;48.314;11.562;2023-02-28T06:28:43;19.50;56.30
1956;DHT22;978;48.314;11.562;2023-02-28T06:31:12;19.50;56.30
1956;DHT22;978;48.314;11.562;2023-02-28T06:33:40;19.50;56.30
1956;DHT22;978;48.314;11.562;2023-02-28T06:36:07;19.50;56.30
1956;DHT22;978;48.314;11.562;2023-02-28T06:38:35;19.50;56.30
1956;DHT22;978;48.314;11.562;2023-02-28T06:41:04;19.50;56.30
1956;DHT22;978;48.314;11.562;2023-02-28T06:43:35;19.50;56.20
1956;DHT22;978;48.314;11.562;2023-02-28T06:46:04;19.50;56.20
1956;DHT22;978;48.314;11.562;2023-02-28T06:48:31;19.50;56.30
1956;DHT22;978;48.314;11.562;2023-02-28T06:51:03;19.50;56.20
1956;DHT22;978;48.314;11.562;2023-02-28T06:53:29;19.50;56.20
1956;DHT22;978;48.314;11.562;2023-02-28T06:55:56;19.50;56.20
1956;DHT22;978;48.314;11.562;2023-02-28T06:58:24;19.50;56.20
1956;DHT22;978;48.314;11.562;2023-02-28T07:00:52;19.50;56.20
1956;DHT22;978;48.314;11.562;2023-02-28T07:03:19;19.50;56.30
1956;DHT22;978;48.314;11.562;2023-02-28T07:05:46;19.50;56.20
1956;DHT22;978;48.314;11.562;2023-02-28T07:08:12;19.50;56.20
1956;DHT22;978;48.314;11.562;2023-02-28T07:10:40;19.50;56.20
1956;DHT22;978;48.314;11.562;2023-02-28T07:13:08;19.50;56.20
1956;DHT22;978;48.314;11.562;2023-02-28T07:15:36;19.50;56.20
1956;DHT22;978;48.314;11.562;2023-02-28T07:18:03;19.50;56.20
1956;DHT22;978;48.314;11.562;2023-02-28T07:20:30;19.50;56.20
1956;DHT22;978;48.314;11.562;2023-02-28T07:22:57;19.50;56.20
1956;DHT22;978;48.314;11.562;2023-02-28T07:25:24;19.60;56.20
1956;DHT22;978;48.314;11.562;2023-02-28T07:27:52;19.50;56.20
1956;DHT22;978;48.314;11.562;2023-02-28T07:30:19;19.50;56.20
1956;DHT22;978;48.314;11.562;2023-02-28T07:32:48;19.50;56.30
1956;DHT22;978;48.314;11.562;2023-02-28T07:35:15;19.50;56.20
1956;DHT22;978;48.314;11.562;2023-02-28T07:37:42;19.50;56.00
1956;DHT22;978;48.314;11.562;2023-02-28T07:40:10;19.50;56.00
1956;DHT22;978;48.314;11.562;2023-02-28T07:42:38;19.50;55.80
1956;DHT22;978;48.314;11.562;2023-02-28T07:45:07;19.60;56.00
1956;DHT22;978;48.314;11.562;2023-02-28T07:47:34;19.60;56.20
1956;DHT22;978;48.314;11.562;2023-02-28T07:50:02;19.60;56.50
1956;DHT22;978;48.314;11.562;2023-02-28T07:52:31;19.60;56.70
1956;DHT22;978;48.314;11.562;2023-02-28T07:54:58;19.60;56.80
1956;DHT22;978;48.314;11.562;2023-02-28T07:57:25;19.60;57.20
1956;DHT22;978;48.314;11.562;2023-02-28T07:59:52;19.60;57.40
1956;DHT22;978;48.314;11.562;2023-02-28T08:02:19;19.60;57.80
1956;DHT22;978;48.314;11.562;2023-02-28T08:04:45;19.60;58.10
1956;DHT22;978;48.314;11.562;2023-02-28T08:07:15;19.60;58.60
1956;DHT22;978;48.314;11.562;2023-02-28T08:09:43;19.60;58.90
1956;DHT22;978;48.314;11.562;2023-02-28T08:12:11;19.60;59.90
1956;DHT22;978;48.314;11.562;2023-02-28T08:14:38;19.60;60.10
1956;DHT22;978;48.314;11.562;2023-02-28T08:17:05;19.60;60.60
1956;DHT22;978;48.314;11.562;2023-02-28T08:19:33;19.60;61.30
1956;DHT22;978;48.314;11.562;2023-02-28T08:22:01;19.60;61.60
1956;DHT22;978;48.314;11.562;2023-02-28T08:24:29;19.60;61.80
1956;DHT22;978;48.314;11.562;2023-02-28T08:26:56;19.60;60.60
1956;DHT22;978;48.314;11.562;2023-02-28T08:29:25;19.60;60.30
1956;DHT22;978;48.314;11.562;2023-02-28T08:31:55;19.60;59.90
1956;DHT22;978;48.314;11.562;2023-02-28T08:34:22;19.60;58.50
1956;DHT22;978;48.314;11.562;2023-02-28T08:36:50;19.60;58.40
1956;DHT22;978;48.314;11.562;2023-02-28T08:39:16;19.60;58.80
1956;DHT22;978;48.314;11.562;2023-02-28T08:41:48;19.60;59.10
1956;DHT22;978;48.314;11.562;2023-02-28T08:44:16;19.60;60.00
1956;DHT22;978;48.314;11.562;2023-02-28T08:46:42;19.60;59.80
1956;DHT22;978;48.314;11.562;2023-02-28T08:49:10;19.60;59.60
1956;DHT22;978;48.314;11.562;2023-02-28T08:51:38;19.60;59.80
1956;DHT22;978;48.314;11.562;2023-02-28T08:54:05;19.60;59.80
1956;DHT22;978;48.314;11.562;2023-02-28T08:56:32;19.60;59.80
1956;DHT22;978;48.314;11.562;2023-02-28T08:59:01;19.60;59.70
1956;DHT22;978;48.314;11.562;2023-02-28T09:01:28;19.60;59.70
1956;DHT22;978;48.314;11.562;2023-02-28T09:03:56;19.60;59.60
1956;DHT22;978;48.314;11.562;2023-02-28T09:06:24;19.60;59.50
1956;DHT22;978;48.314;11.562;2023-02-28T09:08:52;19.60;59.30
1956;DHT22;978;48.314;11.562;2023-02-28T09:11:19;19.60;59.20
1956;DHT22;978;48.314;11.562;2023-02-28T09:13:46;19.60;59.30
1956;DHT22;978;48.314;11.562;2023-02-28T09:16:15;19.60;59.10
1956;DHT22;978;48.314;11.562;2023-02-28T09:18:42;19.60;59.00
1956;DHT22;978;48.314;11.562;2023-02-28T09:21:13;19.60;58.90
1956;DHT22;978;48.314;11.562;2023-02-28T09:23:41;19.60;58.80
1956;DHT22;978;48.314;11.562;2023-02-28T09:26:13;19.60;58.80
1956;DHT22;978;48.314;11.562;2023-02-28T09:28:40;19.60;58.70
1956;DHT22;978;48.314;11.562;2023-02-28T09:31:10;19.60;58.70
1956;DHT22;978;48.314;11.562;2023-02-28T09:33:39;19.60;58.70
1956;DHT22;978;48.314;11.562;2023-02-28T09:36:07;19.60;58.60
1956;DHT22;978;48.314;11.562;2023-02-28T09:38:34;19.60;58.50
1956;DHT22;978;48.314;11.562;2023-02-28T09:41:02;19.60;58.40
1956;DHT22;978;48.314;11.562;2023-02-28T09:43:33;19.60;58.40
1956;DHT22;978;48.314;11.562;2023-02-28T09:46:08;19.60;58.50
1956;DHT22;978;48.314;11.562;2023-02-28T09:48:42;19.60;58.50
1956;DHT22;978;48.314;11.562;2023-02-28T09:51:26;19.60;58.60
1956;DHT22;978;48.314;11.562;2023-02-28T09:53:54;19.60;58.30
1956;DHT22;978;48.314;11.562;2023-02-28T09:56:22;19.60;58.30
1956;DHT22;978;48.314;11.562;2023-02-28T09:58:57;19.60;58.30
1956;DHT22;978;48.314;11.562;2023-02-28T10:01:29;19.60;58.10
1956;DHT22;978;48.314;11.562;2023-02-28T10:04:01;19.60;58.20
1956;DHT22;978;48.314;11.562;2023-02-28T10:06:34;19.60;58.20
1956;DHT22;978;48.314;11.562;2023-02-28T10:09:05;19.60;58.20
1956;DHT22;978;48.314;11.562;2023-02-28T10:11:36;19.60;58.10
1956;DHT22;978;48.314;11.562;2023-02-28T10:14:06;19.60;58.10
1956;DHT22;978;48.314;11.562;2023-02-28T10:16:41;19.60;58.00
1956;DHT22;978;48.314;11.562;2023-02-28T10:19:16;19.60;58.00
1956;DHT22;978;48.314;11.562;2023-02-28T10:21:49;19.60;58.40
1956;DHT22;978;48.314;11.562;2023-02-28T10:24:26;19.60;57.80
1956;DHT22;978;48.314;11.562;2023-02-28T10:27:00;19.60;57.70
1956;DHT22;978;48.314;11.562;2023-02-28T10:29:27;19.60;57.70
1956;DHT22;978;48.314;11.562;2023-02-28T10:32:00;19.60;57.60
1956;DHT22;978;48.314;11.562;2023-02-28T10:34:30;19.60;57.60
1956;DHT22;978;48.314;11.562;2023-02-28T10:36:59;19.60;57.50
1956;DHT22;978;48.314;11.562;2023-02-28T10:39:37;19.60;57.40
1956;DHT22;978;48.314;11.562;2023-02-28T10:42:05;19.60;57.40
1956;DHT22;978;48.314;11.562;2023-02-28T10:44:44;19.60;57.40
1956;DHT22;978;48.314;11.562;2023-02-28T10:47:14;19.60;57.30
1956;DHT22;978;48.314;11.562;2023-02-28T10:49:47;19.60;57.20
1956;DHT22;978;48.314;11.562;2023-02-28T10:52:14;19.60;57.30
1956;DHT22;978;48.314;11.562;2023-02-28T10:55:15;19.60;57.20
1956;DHT22;978;48.314;11.562;2023-02-28T10:57:42;19.60;57.10
1956;DHT22;978;48.314;11.562;2023-02-28T11:00:14;19.60;56.90
1956;DHT22;978;48.314;11.562;2023-02-28T11:02:42;19.60;57.00
1956;DHT22;978;48.314;11.562;2023-02-28T11:05:26;19.60;56.90
1956;DHT22;978;48.314;11.562;2023-02-28T11:07:54;19.60;57.00
1956;DHT22;978;48.314;11.562;2023-02-28T11:10:25;19.60;57.00
1956;DHT22;978;48.314;11.562;2023-02-28T11:12:55;19.60;56.90
1956;DHT22;978;48.314;11.562;2023-02-28T11:15:24;19.60;56.90
1956;DHT22;978;48.314;11.562;2023-02-28T11:17:55;19.60;56.90
1956;DHT22;978;48.314;11.562;2023-02-28T11:20:26;19.60;56.80
1956;DHT22;978;48.314;11.562;2023-02-28T11:22:54;19.60;56.70
1956;DHT22;978;48.314;11.562;2023-02-28T11:25:25;19.60;56.70
1956;DHT22;978;48.314;11.562;2023-02-28T11:27:54;19.60;56.70
1956;DHT22;978;48.314;11.562;2023-02-28T11:30:26;19.60;56.60
1956;DHT22;978;48.314;11.562;2023-02-28T11:32:53;19.60;56.50
1956;DHT22;978;48.314;11.562;2023-02-28T11:35:24;19.60;56.50
1956;DHT22;978;48.314;11.562;2023-02-28T11:37:53;19.60;56.40
1956;DHT22;978;48.314;11.562;2023-02-28T11:40:30;19.60;56.40
1956;DHT22;978;48.314;11.562;2023-02-28T11:43:05;19.60;56.40
1956;DHT22;978;48.314;11.562;2023-02-28T11:45:55;19.60;56.30
1956;DHT22;978;48.314;11.562;2023-02-28T11:48:28;19.60;56.30
1956;DHT22;978;48.314;11.562;2023-02-28T11:51:06;19.60;56.20
1956;DHT22;978;48.314;11.562;2023-02-28T11:54:15;19.60;56.20
1956;DHT22;978;48.314;11.562;2023-02-28T11:56:47;19.60;56.20
1956;DHT22;978;48.314;11.562;2023-02-28T11:59:30;19.60;56.20
1956;DHT22;978;48.314;11.562;2023-02-28T12:02:15;19.60;56.20
1956;DHT22;978;48.314;11.562;2023-02-28T12:04:53;19.60;56.30
1956;DHT22;978;48.314;11.562;2023-02-28T12:07:31;19.60;56.90
1956;DHT22;978;48.314;11.562;2023-02-28T12:10:05;19.60;56.40
1956;DHT22;978;48.314;11.562;2023-02-28T12:12:43;19.60;56.30
1956;DHT22;978;48.314;11.562;2023-02-28T12:15:26;19.60;56.40
1956;DHT22;978;48.314;11.562;2023-02-28T12:18:03;19.60;56.40
1956;DHT22;978;48.314;11.562;2023-02-28T12:20:36;19.60;56.40
1956;DHT22;978;48.314;11.562;2023-02-28T12:23:23;19.60;56.40
1956;DHT22;978;48.314;11.562;2023-02-28T12:26:05;19.60;56.40
1956;DHT22;978;48.314;11.562;2023-02-28T12:28:38;19.60;57.00
1956;DHT22;978;48.314;11.562;2023-02-28T12:31:11;19.60;56.40
1956;DHT22;978;48.314;11.562;2023-02-28T12:33:43;19.60;56.40
1956;DHT22;978;48.314;11.562;2023-02-28T12:36:14;19.60;56.40
1956;DHT22;978;48.314;11.562;2023-02-28T12:38:46;19.50;56.40
1956;DHT22;978;48.314;11.562;2023-02-28T12:41:17;19.60;56.40
1956;DHT22;978;48.314;11.562;2023-02-28T12:43:48;19.60;56.40
1956;DHT22;978;48.314;11.562;2023-02-28T12:46:21;19.60;56.40
1956;DHT22;978;48.314;11.562;2023-02-28T12:48:53;19.60;56.40
1956;DHT22;978;48.314;11.562;2023-02-28T12:51:23;19.60;56.40
1956;DHT22;978;48.314;11.562;2023-02-28T12:53:58;19.60;56.40
1956;DHT22;978;48.314;11.562;2023-02-28T12:56:38;19.60;56.40
1956;DHT22;978;48.314;11.562;2023-02-28T12:59:14;19.60;56.40
1956;DHT22;978;48.314;11.562;2023-02-28T13:05:12;19.40;53.40
1956;DHT22;978;48.314;11.562;2023-02-28T13:08:11;19.30;52.10
1956;DHT22;978;48.314;11.562;2023-02-28T13:10:43;19.40;52.10
1956;DHT22;978;48.314;11.562;2023-02-28T13:13:17;19.40;52.70
1956;DHT22;978;48.314;11.562;2023-02-28T13:16:02;19.50;53.20
1956;DHT22;978;48.314;11.562;2023-02-28T13:18:32;19.50;53.80
1956;DHT22;978;48.314;11.562;2023-02-28T13:21:01;19.50;54.60
1956;DHT22;978;48.314;11.562;2023-02-28T13:26:22;19.50;54.60
1956;DHT22;978;48.314;11.562;2023-02-28T13:29:27;19.50;54.60
1956;DHT22;978;48.314;11.562;2023-02-28T13:38:13;19.60;54.40
1956;DHT22;978;48.314;11.562;2023-02-28T13:40:42;19.50;54.40
1956;DHT22;978;48.314;11.562;2023-02-28T13:43:09;19.50;54.20
1956;DHT22;978;48.314;11.562;2023-02-28T13:45:37;19.50;54.20
1956;DHT22;978;48.314;11.562;2023-02-28T13:48:15;19.50;54.20
1956;DHT22;978;48.314;11.562;2023-02-28T13:50:43;19.60;54.30
1956;DHT22;978;48.314;11.562;2023-02-28T13:56:37;19.60;54.20
1956;DHT22;978;48.314;11.562;2023-02-28T13:59:19;19.50;54.20
1956;DHT22;978;48.314;11.562;2023-02-28T14:02:25;19.50;54.10
1956;DHT22;978;48.314;11.562;2023-02-28T14:05:04;19.50;54.10
1956;DHT22;978;48.314;11.562;2023-02-28T14:07:38;19.50;54.20
1956;DHT22;978;48.314;11.562;2023-02-28T14:10:16;19.50;54.10
1956;DHT22;978;48.314;11.562;2023-02-28T14:12:59;19.50;54.10
1956;DHT22;978;48.314;11.562;2023-02-28T14:15:39;19.60;54.10
1956;DHT22;978;48.314;11.562;2023-02-28T14:18:17;19.60;53.80
1956;DHT22;978;48.314;11.562;2023-02-28T14:20:47;19.60;54.70
1956;DHT22;978;48.314;11.562;2023-02-28T14:23:21;19.60;54.60
1956;DHT22;978;48.314;11.562;2023-02-28T14:25:57;19.60;54.40
1956;DHT22;978;48.314;11.562;2023-02-28T14:28:41;19.60;54.30
1956;DHT22;978;48.314;11.562;2023-02-28T14:31:13;19.60;54.20
1956;DHT22;978;48.314;11.562;2023-02-28T14:33:50;19.50;54.10
1956;DHT22;978;48.314;11.562;2023-02-28T14:36:24;19.50;54.10
1956;DHT22;978;48.314;11.562;2023-02-28T14:38:54;19.50;54.10
1956;DHT22;978;48.314;11.562;2023-02-28T14:41:24;19.50;54.60
1956;DHT22;978;48.314;11.562;2023-02-28T14:43:54;19.50;54.00
1956;DHT22;978;48.314;11.562;2023-02-28T14:46:23;19.60;54.10
1956;DHT22;978;48.314;11.562;2023-02-28T14:48:54;19.50;54.10
1956;DHT22;978;48.314;11.562;2023-02-28T14:51:23;19.50;54.10
1956;DHT22;978;48.314;11.562;2023-02-28T14:53:57;19.60;54.00
1956;DHT22;978;48.314;11.562;2023-02-28T14:56:27;19.50;53.80
1956;DHT22;978;48.314;11.562;2023-02-28T14:58:57;19.50;53.80
1956;DHT22;978;48.314;11.562;2023-02-28T15:01:25;19.50;53.80
1956;DHT22;978;48.314;11.562;2023-02-28T15:04:02;19.50;53.80
1956;DHT22;978;48.314;11.562;2023-02-28T15:06:30;19.50;53.80
1956;DHT22;978;48.314;11.562;2023-02-28T15:09:08;19.50;53.80
1956;DHT22;978;48.314;11.562;2023-02-28T15:11:35;19.50;53.50
1956;DHT22;978;48.314;11.562;2023-02-28T15:14:04;19.50;53.20
1956;DHT22;978;48.314;11.562;2023-02-28T15:16:32;19.50;53.50
1956;DHT22;978;48.314;11.562;2023-02-28T15:19:05;19.50;53.80
1956;DHT22;978;48.314;11.562;2023-02-28T15:21:35;19.50;54.60
1956;DHT22;978;48.314;11.562;2023-02-28T15:24:04;19.50;53.90
1956;DHT22;978;48.314;11.562;2023-02-28T15:26:35;19.50;54.00
1956;DHT22;978;48.314;11.562;2023-02-28T15:29:06;19.50;54.00
1956;DHT22;978;48.314;11.562;2023-02-28T15:31:35;19.50;54.00
1956;DHT22;978;48.314;11.562;2023-02-28T15:34:18;19.50;54.00
1956;DHT22;978;48.314;11.562;2023-02-28T15:36:46;19.50;54.00
1956;DHT22;978;48.314;11.562;2023-02-28T15:39:21;19.50;53.90
1956;DHT22;978;48.314;11.562;2023-02-28T15:41:48;19.50;53.90
1956;DHT22;978;48.314;11.562;2023-02-28T15:44:17;19.50;53.80
1956;DHT22;978;48.314;11.562;2023-02-28T15:46:59;19.50;53.80
1956;DHT22;978;48.314;11.562;2023-02-28T15:49:29;19.50;53.90
1956;DHT22;978;48.314;11.562;2023-02-28T15:51:59;19.50;53.90
1956;DHT22;978;48.314;11.562;2023-02-28T15:54:29;19.50;54.00
1956;DHT22;978;48.314;11.562;2023-02-28T15:56:59;19.50;53.80
1956;DHT22;978;48.314;11.562;2023-02-28T15:59:29;19.50;53.80
1956;DHT22;978;48.314;11.562;2023-02-28T16:02:14;19.60;53.90
1956;DHT22;978;48.314;11.562;2023-02-28T16:04:59;19.50;53.90
1956;DHT22;978;48.314;11.562;2023-02-28T16:07:27;19.50;53.90
1956;DHT22;978;48.314;11.562;2023-02-28T16:09:54;19.50;54.00
1956;DHT22;978;48.314;11.562;2023-02-28T16:12:23;19.50;54.00
1956;DHT22;978;48.314;11.562;2023-02-28T16:14:52;19.50;54.00
1956;DHT22;978;48.314;11.562;2023-02-28T16:17:21;19.50;54.00
1956;DHT22;978;48.314;11.562;2023-02-28T16:19:49;19.50;54.00
1956;DHT22;978;48.314;11.562;2023-02-28T16:22:17;19.50;54.00
1956;DHT22;978;48.314;11.562;2023-02-28T16:24:44;19.50;54.00
1956;DHT22;978;48.314;11.562;2023-02-28T16:27:18;19.50;54.60
1956;DHT22;978;48.314;11.562;2023-02-28T16:29:46;19.50;54.10
1956;DHT22;978;48.314;11.562;2023-02-28T16:32:14;19.50;54.10
1956;DHT22;978;48.314;11.562;2023-02-28T16:34:42;19.50;54.10
1956;DHT22;978;48.314;11.562;2023-02-28T16:37:12;19.50;54.10
1956;DHT22;978;48.314;11.562;2023-02-28T16:39:44;19.50;54.60
1956;DHT22;978;48.314;11.562;2023-02-28T16:42:17;19.50;54.50
1956;DHT22;978;48.314;11.562;2023-02-28T16:44:47;19.50;54.80